N645CM KDEN-
Flight info
| Callsign | N645CM |
|---|---|
| Flight time | N/A |
| Altitude | VFR |
| Route | VFR WEST |
| Aircraft | UH60/L-DOV/C |
Departure
| Time | 2026-05-07 02:22 |
|---|---|
| Airport | Denver International Airport (KDEN) |
Arrival
| Time | N/A |
|---|---|
| Airport | - |
| Time | Latitude | Longitude | Altitude | Speed | Heading |
|---|---|---|---|---|---|
| 2026-05-07 02:18 | 39.83851 | -104.66401 | 5371 ft | 0 kts | 76° |
| 2026-05-07 02:21 | 39.83942 | -104.66247 | 5510 ft | 50 kts | 49° |
| 2026-05-07 02:22 | 39.84468 | -104.66058 | 5710 ft | 107 kts | 7° |
| 2026-05-07 02:22 | 39.85295 | -104.66202 | 5826 ft | 114 kts | 314° |
| 2026-05-07 02:22 | 39.85435 | -104.67143 | 6282 ft | 114 kts | 262° |
| 2026-05-07 02:22 | 39.85341 | -104.68151 | 6226 ft | 116 kts | 263° |
| 2026-05-07 02:23 | 39.85305 | -104.69292 | 6415 ft | 133 kts | 264° |
| 2026-05-07 02:23 | 39.85321 | -104.70615 | 6374 ft | 147 kts | 267° |
| 2026-05-07 02:23 | 39.85346 | -104.71903 | 6381 ft | 136 kts | 267° |
| 2026-05-07 02:23 | 39.85368 | -104.73098 | 6387 ft | 129 kts | 267° |
| 2026-05-07 02:24 | 39.85393 | -104.74237 | 6406 ft | 128 kts | 267° |
| 2026-05-07 02:24 | 39.85420 | -104.75388 | 6332 ft | 138 kts | 267° |
| 2026-05-07 02:24 | 39.85425 | -104.76713 | 6402 ft | 145 kts | 267° |
| 2026-05-07 02:24 | 39.85444 | -104.77957 | 6395 ft | 132 kts | 267° |
| 2026-05-07 02:25 | 39.85472 | -104.79124 | 6402 ft | 126 kts | 267° |
| 2026-05-07 02:25 | 39.85499 | -104.80255 | 6403 ft | 123 kts | 267° |
| 2026-05-07 02:25 | 39.85514 | -104.81493 | 6338 ft | 154 kts | 267° |
| 2026-05-07 02:25 | 39.85525 | -104.82950 | 6461 ft | 152 kts | 267° |
| 2026-05-07 02:26 | 39.85549 | -104.84256 | 6414 ft | 138 kts | 267° |
| 2026-05-07 02:26 | 39.85578 | -104.85472 | 6419 ft | 132 kts | 267° |
| 2026-05-07 02:26 | 39.85611 | -104.86634 | 6416 ft | 129 kts | 267° |
| 2026-05-07 02:26 | 39.85641 | -104.87790 | 6414 ft | 127 kts | 267° |
| 2026-05-07 02:27 | 39.85679 | -104.88932 | 6413 ft | 125 kts | 267° |
| 2026-05-07 02:27 | 39.85718 | -104.90065 | 6412 ft | 125 kts | 267° |
| 2026-05-07 02:27 | 39.85746 | -104.91194 | 6409 ft | 125 kts | 267° |
| 2026-05-07 02:27 | 39.85779 | -104.92322 | 6406 ft | 125 kts | 267° |
| 2026-05-07 02:28 | 39.85821 | -104.93451 | 6417 ft | 125 kts | 267° |
| 2026-05-07 02:28 | 39.85861 | -104.94588 | 6416 ft | 125 kts | 267° |
| 2026-05-07 02:28 | 39.85893 | -104.95714 | 6416 ft | 124 kts | 267° |
| 2026-05-07 02:28 | 39.85927 | -104.96817 | 6417 ft | 123 kts | 267° |
| 2026-05-07 02:29 | 39.85964 | -104.97924 | 6418 ft | 122 kts | 267° |
| 2026-05-07 02:29 | 39.85998 | -104.99024 | 6414 ft | 122 kts | 267° |
| 2026-05-07 02:29 | 39.86030 | -105.00129 | 6389 ft | 122 kts | 267° |
| 2026-05-07 02:29 | 39.86062 | -105.01227 | 6402 ft | 121 kts | 267° |
| 2026-05-07 02:30 | 39.86087 | -105.02325 | 6401 ft | 121 kts | 267° |
| 2026-05-07 02:30 | 39.86111 | -105.03426 | 6402 ft | 121 kts | 267° |
| 2026-05-07 02:30 | 39.86130 | -105.04524 | 6402 ft | 121 kts | 267° |
| 2026-05-07 02:30 | 39.86150 | -105.05621 | 6402 ft | 121 kts | 267° |
| 2026-05-07 02:31 | 39.86177 | -105.06703 | 6400 ft | 121 kts | 267° |
| 2026-05-07 02:31 | 39.86203 | -105.07791 | 6404 ft | 120 kts | 267° |
| 2026-05-07 02:31 | 39.86223 | -105.08882 | 6403 ft | 121 kts | 267° |
| 2026-05-07 02:31 | 39.86240 | -105.09980 | 6402 ft | 122 kts | 267° |
| 2026-05-07 02:32 | 39.86267 | -105.11079 | 6400 ft | 121 kts | 267° |
| 2026-05-07 02:32 | 39.86296 | -105.12178 | 6401 ft | 121 kts | 267° |
| 2026-05-07 02:32 | 39.86328 | -105.13270 | 6401 ft | 121 kts | 267° |
| 2026-05-07 02:32 | 39.86356 | -105.14361 | 6401 ft | 120 kts | 267° |
| 2026-05-07 02:33 | 39.86387 | -105.15451 | 6401 ft | 121 kts | 267° |
| 2026-05-07 02:33 | 39.86418 | -105.16539 | 6402 ft | 120 kts | 267° |
| 2026-05-07 02:33 | 39.86445 | -105.17627 | 6404 ft | 120 kts | 267° |
| 2026-05-07 02:33 | 39.86478 | -105.18717 | 6401 ft | 120 kts | 267° |
| 2026-05-07 02:34 | 39.86513 | -105.19803 | 6399 ft | 120 kts | 267° |
| 2026-05-07 02:34 | 39.86548 | -105.20882 | 6401 ft | 119 kts | 267° |
| 2026-05-07 02:34 | 39.86552 | -105.21951 | 6599 ft | 118 kts | 263° |
| 2026-05-07 02:34 | 39.86432 | -105.23102 | 6534 ft | 145 kts | 255° |
| 2026-05-07 02:35 | 39.86177 | -105.24418 | 6327 ft | 151 kts | 256° |
| 2026-05-07 02:35 | 39.85928 | -105.25766 | 6812 ft | 155 kts | 252° |
| 2026-05-07 02:35 | 39.85660 | -105.27062 | 7420 ft | 148 kts | 253° |
| 2026-05-07 02:35 | 39.85251 | -105.28288 | 7612 ft | 145 kts | 239° |
| 2026-05-07 02:36 | 39.84991 | -105.29554 | 6994 ft | 140 kts | 293° |
| 2026-05-07 02:36 | 39.85210 | -105.30546 | 7168 ft | 120 kts | 262° |
| 2026-05-07 02:36 | 39.85068 | -105.31594 | 7437 ft | 125 kts | 256° |
| 2026-05-07 02:36 | 39.84802 | -105.32592 | 7845 ft | 112 kts | 264° |
| 2026-05-07 02:37 | 39.84997 | -105.33435 | 8025 ft | 93 kts | 278° |
| 2026-05-07 02:37 | 39.84857 | -105.34017 | 8219 ft | 112 kts | 251° |
| 2026-05-07 02:37 | 39.84622 | -105.34976 | 8367 ft | 108 kts | 254° |
| 2026-05-07 02:37 | 39.84408 | -105.36122 | 8456 ft | 107 kts | 268° |
| 2026-05-07 02:38 | 39.84325 | -105.37176 | 8551 ft | 125 kts | 262° |
| 2026-05-07 02:38 | 39.84127 | -105.38285 | 8472 ft | 123 kts | 254° |
| 2026-05-07 02:38 | 39.83949 | -105.38993 | 8575 ft | 121 kts | 258° |
| 2026-05-07 02:38 | 39.83623 | -105.39992 | 8612 ft | 120 kts | 244° |
| 2026-05-07 02:39 | 39.83243 | -105.40941 | 8812 ft | 122 kts | 250° |
| 2026-05-07 02:39 | 39.83215 | -105.42008 | 8903 ft | 118 kts | 279° |
| 2026-05-07 02:39 | 39.83395 | -105.42992 | 8841 ft | 98 kts | 276° |
| 2026-05-07 02:39 | 39.83582 | -105.43578 | 8641 ft | 39 kts | 8° |
| 2026-05-07 02:40 | 39.83669 | -105.43592 | 8537 ft | 6 kts | 95° |
| 2026-05-07 02:40 | 39.83665 | -105.43570 | 8524 ft | 0 kts | 99° |
| 2026-05-07 02:40 | 39.83683 | -105.43573 | 8541 ft | 23 kts | 7° |
| 2026-05-07 02:40 | 39.83970 | -105.43969 | 8756 ft | 94 kts | 309° |
| 2026-05-07 02:41 | 39.84419 | -105.44791 | 9062 ft | 124 kts | 306° |
| 2026-05-07 02:41 | 39.84889 | -105.45783 | 9304 ft | 128 kts | 296° |
| 2026-05-07 02:41 | 39.85242 | -105.46711 | 9317 ft | 97 kts | 320° |
| 2026-05-07 02:41 | 39.85642 | -105.47025 | 9128 ft | 45 kts | 52° |
| 2026-05-07 02:42 | 39.85717 | -105.46813 | 8970 ft | 14 kts | 34° |
| 2026-05-07 02:42 | 39.85737 | -105.46800 | 8967 ft | 5 kts | 204° |
| 2026-05-07 02:42 | 39.85728 | -105.46822 | 8963 ft | 3 kts | 197° |
| 2026-05-07 02:42 | 39.85726 | -105.46827 | 8952 ft | 0 kts | 194° |